sensor_id;sensor_type;location;lat;lon;timestamp;pressure;altitude;pressure_sealevel;temperature;humidity
61436;BME280;47304;47.456;19.160;2024-01-11T00:00:21;101702.05;;;-5.34;67.75
61436;BME280;47304;47.456;19.160;2024-01-11T00:02:49;101699.47;;;-5.34;67.63
61436;BME280;47304;47.456;19.160;2024-01-11T00:05:18;101699.73;;;-5.35;67.67
61436;BME280;47304;47.456;19.160;2024-01-11T00:07:47;101698.20;;;-5.37;67.42
61436;BME280;47304;47.456;19.160;2024-01-11T00:10:15;101697.52;;;-5.39;67.41
61436;BME280;47304;47.456;19.160;2024-01-11T00:12:43;101701.25;;;-5.39;67.57
61436;BME280;47304;47.456;19.160;2024-01-11T00:15:12;101699.69;;;-5.41;67.58
61436;BME280;47304;47.456;19.160;2024-01-11T00:17:40;101695.94;;;-5.43;67.42
61436;BME280;47304;47.456;19.160;2024-01-11T00:20:10;101695.36;;;-5.46;67.46
61436;BME280;47304;47.456;19.160;2024-01-11T00:22:38;101700.45;;;-5.49;67.30
61436;BME280;47304;47.456;19.160;2024-01-11T00:25:07;101693.76;;;-5.51;67.42
61436;BME280;47304;47.456;19.160;2024-01-11T00:27:35;101694.60;;;-5.53;67.43
61436;BME280;47304;47.456;19.160;2024-01-11T00:30:06;101692.94;;;-5.55;67.44
61436;BME280;47304;47.456;19.160;2024-01-11T00:32:34;101694.04;;;-5.58;67.41
61436;BME280;47304;47.456;19.160;2024-01-11T00:35:03;101686.12;;;-5.59;67.45
61436;BME280;47304;47.456;19.160;2024-01-11T00:37:31;101685.52;;;-5.59;67.65
61436;BME280;47304;47.456;19.160;2024-01-11T00:39:59;101686.50;;;-5.62;67.40
61436;BME280;47304;47.456;19.160;2024-01-11T00:42:28;101686.39;;;-5.64;67.55
61436;BME280;47304;47.456;19.160;2024-01-11T00:44:56;101686.39;;;-5.63;67.56
61436;BME280;47304;47.456;19.160;2024-01-11T00:47:24;101677.70;;;-5.65;67.54
61436;BME280;47304;47.456;19.160;2024-01-11T00:49:52;101682.82;;;-5.67;67.46
61436;BME280;47304;47.456;19.160;2024-01-11T00:52:20;101680.44;;;-5.69;67.60
61436;BME280;47304;47.456;19.160;2024-01-11T00:54:49;101675.61;;;-5.70;67.46
61436;BME280;47304;47.456;19.160;2024-01-11T00:57:17;101679.52;;;-5.72;67.48
61436;BME280;47304;47.456;19.160;2024-01-11T00:59:45;101678.27;;;-5.75;67.31
61436;BME280;47304;47.456;19.160;2024-01-11T01:02:14;101671.56;;;-5.77;67.56
61436;BME280;47304;47.456;19.160;2024-01-11T01:04:42;101667.33;;;-5.79;67.47
61436;BME280;47304;47.456;19.160;2024-01-11T01:07:10;101661.27;;;-5.82;67.52
61436;BME280;47304;47.456;19.160;2024-01-11T01:09:39;101660.30;;;-5.83;67.79
61436;BME280;47304;47.456;19.160;2024-01-11T01:12:07;101654.27;;;-5.84;67.65
61436;BME280;47304;47.456;19.160;2024-01-11T01:14:36;101651.30;;;-5.84;67.70
61436;BME280;47304;47.456;19.160;2024-01-11T01:17:04;101650.71;;;-5.85;67.73
61436;BME280;47304;47.456;19.160;2024-01-11T01:19:33;101654.35;;;-5.87;67.71
61436;BME280;47304;47.456;19.160;2024-01-11T01:22:01;101649.09;;;-5.88;67.66
61436;BME280;47304;47.456;19.160;2024-01-11T01:24:29;101649.49;;;-5.90;67.55
61436;BME280;47304;47.456;19.160;2024-01-11T01:26:58;101650.27;;;-5.91;67.60
61436;BME280;47304;47.456;19.160;2024-01-11T01:29:26;101645.58;;;-5.91;67.61
61436;BME280;47304;47.456;19.160;2024-01-11T01:31:54;101639.32;;;-5.93;67.55
61436;BME280;47304;47.456;19.160;2024-01-11T01:34:22;101639.68;;;-5.95;67.53
61436;BME280;47304;47.456;19.160;2024-01-11T01:36:51;101634.13;;;-5.98;67.61
61436;BME280;47304;47.456;19.160;2024-01-11T01:39:19;101627.84;;;-6.02;67.43
61436;BME280;47304;47.456;19.160;2024-01-11T01:41:47;101630.01;;;-6.04;67.66
61436;BME280;47304;47.456;19.160;2024-01-11T01:44:15;101627.85;;;-6.07;67.64
61436;BME280;47304;47.456;19.160;2024-01-11T01:46:43;101626.81;;;-6.10;67.65
61436;BME280;47304;47.456;19.160;2024-01-11T01:49:13;101622.42;;;-6.13;67.64
61436;BME280;47304;47.456;19.160;2024-01-11T01:51:41;101621.61;;;-6.15;67.81
61436;BME280;47304;47.456;19.160;2024-01-11T01:54:10;101620.11;;;-6.18;67.73
61436;BME280;47304;47.456;19.160;2024-01-11T01:56:38;101614.85;;;-6.20;67.65
61436;BME280;47304;47.456;19.160;2024-01-11T01:59:07;101612.56;;;-6.23;67.73
61436;BME280;47304;47.456;19.160;2024-01-11T02:01:36;101607.09;;;-6.25;67.76
61436;BME280;47304;47.456;19.160;2024-01-11T02:04:04;101603.55;;;-6.27;67.84
61436;BME280;47304;47.456;19.160;2024-01-11T02:06:35;101596.64;;;-6.27;67.82
61436;BME280;47304;47.456;19.160;2024-01-11T02:09:04;101597.02;;;-6.29;68.07
61436;BME280;47304;47.456;19.160;2024-01-11T02:11:35;101595.83;;;-6.31;67.91
61436;BME280;47304;47.456;19.160;2024-01-11T02:14:03;101594.27;;;-6.33;67.89
61436;BME280;47304;47.456;19.160;2024-01-11T02:16:32;101591.23;;;-6.35;67.90
61436;BME280;47304;47.456;19.160;2024-01-11T02:19:00;101584.23;;;-6.37;68.22
61436;BME280;47304;47.456;19.160;2024-01-11T02:21:28;101582.71;;;-6.39;67.91
61436;BME280;47304;47.456;19.160;2024-01-11T02:24:04;101582.20;;;-6.39;67.91
61436;BME280;47304;47.456;19.160;2024-01-11T02:26:33;101578.09;;;-6.41;67.83
61436;BME280;47304;47.456;19.160;2024-01-11T02:29:01;101575.61;;;-6.44;67.87
61436;BME280;47304;47.456;19.160;2024-01-11T02:31:29;101577.56;;;-6.47;67.80
61436;BME280;47304;47.456;19.160;2024-01-11T02:33:58;101571.15;;;-6.50;67.91
61436;BME280;47304;47.456;19.160;2024-01-11T02:36:27;101569.30;;;-6.54;67.88
61436;BME280;47304;47.456;19.160;2024-01-11T02:38:56;101566.45;;;-6.55;67.84
61436;BME280;47304;47.456;19.160;2024-01-11T02:41:25;101561.59;;;-6.56;67.97
61436;BME280;47304;47.456;19.160;2024-01-11T02:43:55;101560.23;;;-6.56;68.13
61436;BME280;47304;47.456;19.160;2024-01-11T02:46:23;101557.15;;;-6.56;68.13
61436;BME280;47304;47.456;19.160;2024-01-11T02:48:52;101552.02;;;-6.56;68.18
61436;BME280;47304;47.456;19.160;2024-01-11T02:51:20;101547.96;;;-6.56;68.27
61436;BME280;47304;47.456;19.160;2024-01-11T02:53:48;101549.19;;;-6.55;68.45
61436;BME280;47304;47.456;19.160;2024-01-11T02:56:17;101543.18;;;-6.54;68.34
61436;BME280;47304;47.456;19.160;2024-01-11T02:58:46;101535.02;;;-6.54;68.47
61436;BME280;47304;47.456;19.160;2024-01-11T03:01:14;101530.29;;;-6.51;68.43
61436;BME280;47304;47.456;19.160;2024-01-11T03:03:42;101531.15;;;-6.51;68.31
61436;BME280;47304;47.456;19.160;2024-01-11T03:06:10;101533.56;;;-6.51;68.20
61436;BME280;47304;47.456;19.160;2024-01-11T03:08:38;101528.73;;;-6.51;68.15
61436;BME280;47304;47.456;19.160;2024-01-11T03:11:06;101526.21;;;-6.51;67.86
61436;BME280;47304;47.456;19.160;2024-01-11T03:13:35;101520.79;;;-6.53;67.98
61436;BME280;47304;47.456;19.160;2024-01-11T03:16:03;101518.30;;;-6.54;67.97
61436;BME280;47304;47.456;19.160;2024-01-11T03:18:32;101523.47;;;-6.53;67.98
61436;BME280;47304;47.456;19.160;2024-01-11T03:21:00;101520.87;;;-6.54;67.98
61436;BME280;47304;47.456;19.160;2024-01-11T03:23:29;101515.54;;;-6.54;68.07
61436;BME280;47304;47.456;19.160;2024-01-11T03:25:57;101515.26;;;-6.55;67.95
61436;BME280;47304;47.456;19.160;2024-01-11T03:28:25;101508.52;;;-6.57;67.93
61436;BME280;47304;47.456;19.160;2024-01-11T03:30:53;101506.96;;;-6.57;68.03
61436;BME280;47304;47.456;19.160;2024-01-11T03:33:22;101503.30;;;-6.58;68.07
61436;BME280;47304;47.456;19.160;2024-01-11T03:35:50;101502.67;;;-6.59;67.99
61436;BME280;47304;47.456;19.160;2024-01-11T03:38:19;101492.86;;;-6.60;67.99
61436;BME280;47304;47.456;19.160;2024-01-11T03:40:47;101489.02;;;-6.62;67.81
61436;BME280;47304;47.456;19.160;2024-01-11T03:43:18;101487.36;;;-6.63;67.88
61436;BME280;47304;47.456;19.160;2024-01-11T03:45:46;101483.61;;;-6.65;67.95
61436;BME280;47304;47.456;19.160;2024-01-11T03:48:15;101482.39;;;-6.67;67.85
61436;BME280;47304;47.456;19.160;2024-01-11T03:50:43;101482.50;;;-6.68;67.92
61436;BME280;47304;47.456;19.160;2024-01-11T03:53:11;101479.33;;;-6.69;67.96
61436;BME280;47304;47.456;19.160;2024-01-11T03:55:40;101475.11;;;-6.70;67.82
61436;BME280;47304;47.456;19.160;2024-01-11T03:58:08;101477.77;;;-6.71;68.02
61436;BME280;47304;47.456;19.160;2024-01-11T04:00:36;101473.80;;;-6.72;68.00
61436;BME280;47304;47.456;19.160;2024-01-11T04:03:05;101469.48;;;-6.75;67.75
61436;BME280;47304;47.456;19.160;2024-01-11T04:05:33;101468.52;;;-6.76;67.76
61436;BME280;47304;47.456;19.160;2024-01-11T04:08:04;101467.85;;;-6.78;67.92
61436;BME280;47304;47.456;19.160;2024-01-11T04:10:33;101462.36;;;-6.80;67.86
61436;BME280;47304;47.456;19.160;2024-01-11T04:13:01;101467.48;;;-6.80;68.00
61436;BME280;47304;47.456;19.160;2024-01-11T04:15:29;101473.11;;;-6.80;68.09
61436;BME280;47304;47.456;19.160;2024-01-11T04:17:58;101474.36;;;-6.81;68.00
61436;BME280;47304;47.456;19.160;2024-01-11T04:20:26;101481.14;;;-6.82;68.04
61436;BME280;47304;47.456;19.160;2024-01-11T04:22:55;101475.23;;;-6.83;68.00
61436;BME280;47304;47.456;19.160;2024-01-11T04:25:23;101475.63;;;-6.84;67.88
61436;BME280;47304;47.456;19.160;2024-01-11T04:27:51;101477.71;;;-6.86;67.85
61436;BME280;47304;47.456;19.160;2024-01-11T04:30:20;101473.84;;;-6.87;67.89
61436;BME280;47304;47.456;19.160;2024-01-11T04:32:48;101474.15;;;-6.90;67.91
61436;BME280;47304;47.456;19.160;2024-01-11T04:35:16;101479.17;;;-6.91;67.96
61436;BME280;47304;47.456;19.160;2024-01-11T04:37:45;101482.26;;;-6.93;68.08
61436;BME280;47304;47.456;19.160;2024-01-11T04:40:13;101481.58;;;-6.92;68.03
61436;BME280;47304;47.456;19.160;2024-01-11T04:42:42;101478.63;;;-6.93;68.20
61436;BME280;47304;47.456;19.160;2024-01-11T04:45:11;101472.91;;;-6.94;68.17
61436;BME280;47304;47.456;19.160;2024-01-11T04:47:39;101478.31;;;-6.93;68.14
61436;BME280;47304;47.456;19.160;2024-01-11T04:50:08;101477.98;;;-6.93;68.01
61436;BME280;47304;47.456;19.160;2024-01-11T04:52:37;101473.03;;;-6.93;68.01
61436;BME280;47304;47.456;19.160;2024-01-11T04:55:05;101471.63;;;-6.93;68.25
61436;BME280;47304;47.456;19.160;2024-01-11T04:57:34;101477.67;;;-6.92;68.34
61436;BME280;47304;47.456;19.160;2024-01-11T05:00:02;101481.36;;;-6.91;68.32
61436;BME280;47304;47.456;19.160;2024-01-11T05:02:30;101478.84;;;-6.93;67.97
61436;BME280;47304;47.456;19.160;2024-01-11T05:04:59;101471.80;;;-6.95;68.01
61436;BME280;47304;47.456;19.160;2024-01-11T05:07:28;101470.14;;;-6.95;68.22
61436;BME280;47304;47.456;19.160;2024-01-11T05:09:56;101468.91;;;-6.95;68.19
61436;BME280;47304;47.456;19.160;2024-01-11T05:12:24;101467.78;;;-6.96;68.28
61436;BME280;47304;47.456;19.160;2024-01-11T05:14:53;101463.34;;;-6.98;68.14
61436;BME280;47304;47.456;19.160;2024-01-11T05:17:21;101466.85;;;-6.99;68.35
61436;BME280;47304;47.456;19.160;2024-01-11T05:19:49;101470.70;;;-7.00;68.12
61436;BME280;47304;47.456;19.160;2024-01-11T05:22:17;101467.08;;;-7.00;67.98
61436;BME280;47304;47.456;19.160;2024-01-11T05:24:46;101463.95;;;-7.01;68.11
61436;BME280;47304;47.456;19.160;2024-01-11T05:27:14;101464.64;;;-7.03;67.86
61436;BME280;47304;47.456;19.160;2024-01-11T05:29:42;101465.23;;;-7.04;68.12
61436;BME280;47304;47.456;19.160;2024-01-11T05:32:10;101468.96;;;-7.04;68.28
61436;BME280;47304;47.456;19.160;2024-01-11T05:34:38;101475.49;;;-7.04;68.22
61436;BME280;47304;47.456;19.160;2024-01-11T05:37:07;101479.77;;;-7.04;68.13
61436;BME280;47304;47.456;19.160;2024-01-11T05:39:35;101475.33;;;-7.06;68.11
61436;BME280;47304;47.456;19.160;2024-01-11T05:42:04;101476.17;;;-7.08;68.02
61436;BME280;47304;47.456;19.160;2024-01-11T05:44:32;101475.31;;;-7.08;68.22
61436;BME280;47304;47.456;19.160;2024-01-11T05:47:00;101467.76;;;-7.09;68.12
61436;BME280;47304;47.456;19.160;2024-01-11T05:49:28;101471.23;;;-7.10;67.94
61436;BME280;47304;47.456;19.160;2024-01-11T05:51:57;101468.20;;;-7.10;68.34
61436;BME280;47304;47.456;19.160;2024-01-11T05:54:25;101469.82;;;-7.10;68.34
61436;BME280;47304;47.456;19.160;2024-01-11T05:56:53;101474.03;;;-7.11;68.33
61436;BME280;47304;47.456;19.160;2024-01-11T05:59:21;101473.80;;;-7.12;68.33
61436;BME280;47304;47.456;19.160;2024-01-11T06:01:50;101471.95;;;-7.13;68.09
61436;BME280;47304;47.456;19.160;2024-01-11T06:04:18;101470.34;;;-7.14;67.98
61436;BME280;47304;47.456;19.160;2024-01-11T06:06:46;101472.60;;;-7.15;68.22
61436;BME280;47304;47.456;19.160;2024-01-11T06:09:14;101476.84;;;-7.15;68.36
61436;BME280;47304;47.456;19.160;2024-01-11T06:11:42;101474.05;;;-7.16;68.08
61436;BME280;47304;47.456;19.160;2024-01-11T06:14:11;101469.91;;;-7.17;67.99
61436;BME280;47304;47.456;19.160;2024-01-11T06:16:39;101463.02;;;-7.18;68.02
61436;BME280;47304;47.456;19.160;2024-01-11T06:19:08;101458.64;;;-7.17;68.12
61436;BME280;47304;47.456;19.160;2024-01-11T06:21:36;101454.39;;;-7.19;67.96
61436;BME280;47304;47.456;19.160;2024-01-11T06:24:05;101454.29;;;-7.18;68.51
61436;BME280;47304;47.456;19.160;2024-01-11T06:26:33;101456.28;;;-7.13;68.59
61436;BME280;47304;47.456;19.160;2024-01-11T06:29:01;101457.90;;;-7.08;68.62
61436;BME280;47304;47.456;19.160;2024-01-11T06:31:30;101452.48;;;-7.06;68.37
61436;BME280;47304;47.456;19.160;2024-01-11T06:33:58;101452.45;;;-7.02;68.46
61436;BME280;47304;47.456;19.160;2024-01-11T06:36:26;101456.91;;;-6.98;68.37
61436;BME280;47304;47.456;19.160;2024-01-11T06:38:55;101453.06;;;-6.97;68.34
61436;BME280;47304;47.456;19.160;2024-01-11T06:41:23;101447.98;;;-6.95;68.37
61436;BME280;47304;47.456;19.160;2024-01-11T06:43:51;101442.65;;;-6.92;68.11
61436;BME280;47304;47.456;19.160;2024-01-11T06:46:22;101443.34;;;-6.87;68.21
61436;BME280;47304;47.456;19.160;2024-01-11T06:48:51;101444.96;;;-6.86;68.07
61436;BME280;47304;47.456;19.160;2024-01-11T06:51:21;101447.58;;;-6.83;68.24
61436;BME280;47304;47.456;19.160;2024-01-11T06:53:50;101444.23;;;-6.81;68.20
61436;BME280;47304;47.456;19.160;2024-01-11T06:56:19;101442.71;;;-6.79;68.17
61436;BME280;47304;47.456;19.160;2024-01-11T06:58:48;101439.73;;;-6.76;68.02
61436;BME280;47304;47.456;19.160;2024-01-11T07:01:16;101438.69;;;-6.72;68.08
61436;BME280;47304;47.456;19.160;2024-01-11T07:03:45;101438.81;;;-6.68;68.19
61436;BME280;47304;47.456;19.160;2024-01-11T07:06:14;101443.96;;;-6.64;68.13
61436;BME280;47304;47.456;19.160;2024-01-11T07:08:42;101441.14;;;-6.59;68.07
61436;BME280;47304;47.456;19.160;2024-01-11T07:11:10;101442.11;;;-6.56;67.88
61436;BME280;47304;47.456;19.160;2024-01-11T07:13:39;101441.56;;;-6.52;67.85
61436;BME280;47304;47.456;19.160;2024-01-11T07:16:07;101442.20;;;-6.49;68.05
61436;BME280;47304;47.456;19.160;2024-01-11T07:18:35;101441.66;;;-6.43;68.55
61436;BME280;47304;47.456;19.160;2024-01-11T07:21:04;101435.64;;;-6.37;68.67
61436;BME280;47304;47.456;19.160;2024-01-11T07:23:32;101435.72;;;-6.30;68.86
61436;BME280;47304;47.456;19.160;2024-01-11T07:26:00;101430.77;;;-6.22;69.01
61436;BME280;47304;47.456;19.160;2024-01-11T07:28:28;101428.52;;;-6.14;69.26
61436;BME280;47304;47.456;19.160;2024-01-11T07:30:56;101432.56;;;-6.07;69.40
61436;BME280;47304;47.456;19.160;2024-01-11T07:33:24;101439.08;;;-5.98;69.75
61436;BME280;47304;47.456;19.160;2024-01-11T07:35:52;101446.87;;;-5.88;70.17
61436;BME280;47304;47.456;19.160;2024-01-11T07:38:21;101447.90;;;-5.77;70.04
61436;BME280;47304;47.456;19.160;2024-01-11T07:40:49;101437.52;;;-5.69;69.74
61436;BME280;47304;47.456;19.160;2024-01-11T07:43:17;101429.77;;;-5.61;69.54
61436;BME280;47304;47.456;19.160;2024-01-11T07:45:45;101430.65;;;-5.52;69.57
61436;BME280;47304;47.456;19.160;2024-01-11T07:48:14;101429.52;;;-5.43;69.86
61436;BME280;47304;47.456;19.160;2024-01-11T07:50:42;101431.30;;;-5.34;69.96
61436;BME280;47304;47.456;19.160;2024-01-11T07:53:10;101426.66;;;-5.23;70.15
61436;BME280;47304;47.456;19.160;2024-01-11T07:55:38;101425.61;;;-5.12;69.98
61436;BME280;47304;47.456;19.160;2024-01-11T07:58:07;101430.58;;;-5.02;70.03
61436;BME280;47304;47.456;19.160;2024-01-11T08:00:35;101424.91;;;-4.91;69.97
61436;BME280;47304;47.456;19.160;2024-01-11T08:03:04;101418.48;;;-4.81;69.94
61436;BME280;47304;47.456;19.160;2024-01-11T08:05:32;101413.52;;;-4.73;69.81
61436;BME280;47304;47.456;19.160;2024-01-11T08:08:00;101413.39;;;-4.61;69.93
61436;BME280;47304;47.456;19.160;2024-01-11T08:10:29;101412.25;;;-4.49;69.99
61436;BME280;47304;47.456;19.160;2024-01-11T08:12:57;101407.45;;;-4.36;69.84
61436;BME280;47304;47.456;19.160;2024-01-11T08:15:25;101400.06;;;-4.25;69.70
61436;BME280;47304;47.456;19.160;2024-01-11T08:17:54;101396.45;;;-4.13;69.62
61436;BME280;47304;47.456;19.160;2024-01-11T08:20:22;101396.27;;;-4.00;69.59
61436;BME280;47304;47.456;19.160;2024-01-11T08:22:50;101395.42;;;-3.86;69.61
61436;BME280;47304;47.456;19.160;2024-01-11T08:25:19;101388.59;;;-3.71;69.59
61436;BME280;47304;47.456;19.160;2024-01-11T08:27:47;101382.29;;;-3.57;69.12
61436;BME280;47304;47.456;19.160;2024-01-11T08:30:16;101381.52;;;-3.46;68.73
61436;BME280;47304;47.456;19.160;2024-01-11T08:32:44;101376.05;;;-3.34;68.48
61436;BME280;47304;47.456;19.160;2024-01-11T08:35:12;101377.02;;;-3.27;67.99
61436;BME280;47304;47.456;19.160;2024-01-11T08:37:40;101375.96;;;-3.18;67.78
61436;BME280;47304;47.456;19.160;2024-01-11T08:40:11;101376.17;;;-3.08;67.45
61436;BME280;47304;47.456;19.160;2024-01-11T08:42:39;101371.95;;;-2.97;67.25
61436;BME280;47304;47.456;19.160;2024-01-11T08:45:08;101372.33;;;-2.87;66.96
61436;BME280;47304;47.456;19.160;2024-01-11T08:47:37;101370.31;;;-2.74;66.97
61436;BME280;47304;47.456;19.160;2024-01-11T08:50:06;101364.48;;;-2.58;66.74
61436;BME280;47304;47.456;19.160;2024-01-11T08:52:34;101362.81;;;-2.35;66.46
61436;BME280;47304;47.456;19.160;2024-01-11T08:55:03;101361.11;;;-2.06;66.30
61436;BME280;47304;47.456;19.160;2024-01-11T08:57:32;101359.13;;;-1.70;65.79
61436;BME280;47304;47.456;19.160;2024-01-11T09:00:00;101366.61;;;-1.34;65.18
61436;BME280;47304;47.456;19.160;2024-01-11T09:02:29;101375.89;;;-0.93;65.02
61436;BME280;47304;47.456;19.160;2024-01-11T09:04:57;101369.06;;;-0.61;63.92
61436;BME280;47304;47.456;19.160;2024-01-11T09:07:25;101362.90;;;-0.46;62.82
61436;BME280;47304;47.456;19.160;2024-01-11T09:09:53;101356.12;;;-0.32;62.33
61436;BME280;47304;47.456;19.160;2024-01-11T09:12:22;101354.36;;;-0.12;62.29
61436;BME280;47304;47.456;19.160;2024-01-11T09:14:50;101350.58;;;0.24;62.01
61436;BME280;47304;47.456;19.160;2024-01-11T09:17:18;101347.16;;;0.71;61.22
61436;BME280;47304;47.456;19.160;2024-01-11T09:19:46;101344.62;;;1.10;59.67
61436;BME280;47304;47.456;19.160;2024-01-11T09:22:15;101342.26;;;1.54;59.63
61436;BME280;47304;47.456;19.160;2024-01-11T09:24:44;101336.61;;;2.07;58.48
61436;BME280;47304;47.456;19.160;2024-01-11T09:27:12;101336.54;;;2.71;57.85
61436;BME280;47304;47.456;19.160;2024-01-11T09:29:44;101328.30;;;3.69;57.54
61436;BME280;47304;47.456;19.160;2024-01-11T09:32:13;101316.45;;;4.58;55.93
61436;BME280;47304;47.456;19.160;2024-01-11T09:34:41;101310.40;;;5.38;54.77
61436;BME280;47304;47.456;19.160;2024-01-11T09:37:10;101301.42;;;6.22;53.48
61436;BME280;47304;47.456;19.160;2024-01-11T09:39:38;101286.83;;;7.22;52.02
61436;BME280;47304;47.456;19.160;2024-01-11T09:42:08;101275.17;;;8.33;50.31
61436;BME280;47304;47.456;19.160;2024-01-11T09:44:37;101261.08;;;9.55;48.98
61436;BME280;47304;47.456;19.160;2024-01-11T09:47:07;101241.14;;;10.69;46.45
61436;BME280;47304;47.456;19.160;2024-01-11T09:49:37;101227.90;;;11.73;43.60
61436;BME280;47304;47.456;19.160;2024-01-11T09:52:06;101223.31;;;12.43;41.36
61436;BME280;47304;47.456;19.160;2024-01-11T09:54:35;101220.27;;;13.20;40.46
61436;BME280;47304;47.456;19.160;2024-01-11T09:57:05;101212.77;;;13.96;38.70
61436;BME280;47304;47.456;19.160;2024-01-11T09:59:35;101205.81;;;14.45;36.05
61436;BME280;47304;47.456;19.160;2024-01-11T10:02:03;101198.60;;;14.42;34.56
61436;BME280;47304;47.456;19.160;2024-01-11T10:04:32;101197.73;;;14.44;33.30
61436;BME280;47304;47.456;19.160;2024-01-11T10:07:01;101197.94;;;14.28;32.69
61436;BME280;47304;47.456;19.160;2024-01-11T10:09:31;101200.27;;;13.55;31.86
61436;BME280;47304;47.456;19.160;2024-01-11T10:12:00;101193.23;;;12.39;32.18
61436;BME280;47304;47.456;19.160;2024-01-11T10:14:28;101192.68;;;11.22;33.09
61436;BME280;47304;47.456;19.160;2024-01-11T10:16:56;101198.36;;;10.27;33.25
61436;BME280;47304;47.456;19.160;2024-01-11T10:19:25;101192.45;;;9.50;33.97
61436;BME280;47304;47.456;19.160;2024-01-11T10:21:53;101189.25;;;9.07;34.18
61436;BME280;47304;47.456;19.160;2024-01-11T10:24:21;101175.55;;;8.86;34.19
61436;BME280;47304;47.456;19.160;2024-01-11T10:26:49;101169.98;;;8.61;34.69
61436;BME280;47304;47.456;19.160;2024-01-11T10:29:18;101175.30;;;8.24;34.64
61436;BME280;47304;47.456;19.160;2024-01-11T10:31:46;101174.47;;;7.95;34.48
61436;BME280;47304;47.456;19.160;2024-01-11T10:34:14;101166.84;;;7.82;34.64
61436;BME280;47304;47.456;19.160;2024-01-11T10:36:42;101162.69;;;8.66;34.32
61436;BME280;47304;47.456;19.160;2024-01-11T10:39:11;101158.48;;;10.95;33.09
61436;BME280;47304;47.456;19.160;2024-01-11T10:41:41;101150.42;;;13.47;30.62
61436;BME280;47304;47.456;19.160;2024-01-11T10:44:18;101140.13;;;14.30;29.16
61436;BME280;47304;47.456;19.160;2024-01-11T10:46:47;101126.85;;;15.68;28.21
61436;BME280;47304;47.456;19.160;2024-01-11T10:49:18;101122.91;;;18.08;27.03
61436;BME280;47304;47.456;19.160;2024-01-11T10:51:56;101121.05;;;19.78;24.78
61436;BME280;47304;47.456;19.160;2024-01-11T10:54:27;101119.51;;;20.88;23.09
61436;BME280;47304;47.456;19.160;2024-01-11T10:56:56;101114.40;;;21.42;22.12
61436;BME280;47304;47.456;19.160;2024-01-11T10:59:26;101110.30;;;22.28;21.33
61436;BME280;47304;47.456;19.160;2024-01-11T11:01:56;101097.48;;;23.11;20.63
61436;BME280;47304;47.456;19.160;2024-01-11T11:04:25;101088.02;;;23.69;20.27
61436;BME280;47304;47.456;19.160;2024-01-11T11:06:56;101081.23;;;24.68;19.59
61436;BME280;47304;47.456;19.160;2024-01-11T11:09:24;101069.29;;;25.47;18.96
61436;BME280;47304;47.456;19.160;2024-01-11T11:11:54;101062.15;;;25.77;18.73
61436;BME280;47304;47.456;19.160;2024-01-11T11:14:24;101070.43;;;26.24;17.75
61436;BME280;47304;47.456;19.160;2024-01-11T11:16:52;101065.87;;;25.64;17.39
61436;BME280;47304;47.456;19.160;2024-01-11T11:19:22;101062.43;;;25.92;17.20
61436;BME280;47304;47.456;19.160;2024-01-11T11:21:50;101055.86;;;26.31;17.21
61436;BME280;47304;47.456;19.160;2024-01-11T11:24:19;101057.61;;;27.11;17.26
61436;BME280;47304;47.456;19.160;2024-01-11T11:26:47;101066.39;;;27.72;16.76
61436;BME280;47304;47.456;19.160;2024-01-11T11:29:16;101070.35;;;27.23;16.45
61436;BME280;47304;47.456;19.160;2024-01-11T11:31:45;101065.90;;;26.11;16.71
61436;BME280;47304;47.456;19.160;2024-01-11T11:34:13;101067.03;;;24.08;17.23
61436;BME280;47304;47.456;19.160;2024-01-11T11:36:42;101065.23;;;21.43;18.44
61436;BME280;47304;47.456;19.160;2024-01-11T11:39:14;101061.52;;;18.85;20.09
61436;BME280;47304;47.456;19.160;2024-01-11T11:41:43;101055.96;;;17.43;21.34
61436;BME280;47304;47.456;19.160;2024-01-11T11:44:13;101042.25;;;17.75;21.87
61436;BME280;47304;47.456;19.160;2024-01-11T11:46:41;101040.30;;;19.20;21.26
61436;BME280;47304;47.456;19.160;2024-01-11T11:49:09;101037.27;;;19.80;20.69
61436;BME280;47304;47.456;19.160;2024-01-11T11:51:40;101035.05;;;21.48;20.37
61436;BME280;47304;47.456;19.160;2024-01-11T11:54:09;101037.77;;;22.76;19.51
61436;BME280;47304;47.456;19.160;2024-01-11T11:56:38;101032.51;;;23.35;18.84
61436;BME280;47304;47.456;19.160;2024-01-11T11:59:07;101031.66;;;23.94;18.55
61436;BME280;47304;47.456;19.160;2024-01-11T12:01:37;101025.45;;;24.44;17.79
61436;BME280;47304;47.456;19.160;2024-01-11T12:04:05;101024.96;;;24.72;18.24
61436;BME280;47304;47.456;19.160;2024-01-11T12:06:36;101002.35;;;25.71;17.74
61436;BME280;47304;47.456;19.160;2024-01-11T12:09:04;100997.42;;;26.29;17.07
61436;BME280;47304;47.456;19.160;2024-01-11T12:11:33;101000.57;;;27.00;16.50
61436;BME280;47304;47.456;19.160;2024-01-11T12:14:01;100997.94;;;27.53;16.11
61436;BME280;47304;47.456;19.160;2024-01-11T12:16:29;100993.98;;;27.61;15.49
61436;BME280;47304;47.456;19.160;2024-01-11T12:18:57;100989.89;;;27.69;15.43
61436;BME280;47304;47.456;19.160;2024-01-11T12:21:26;100988.29;;;27.89;15.58
61436;BME280;47304;47.456;19.160;2024-01-11T12:23:54;100992.35;;;27.82;14.67
61436;BME280;47304;47.456;19.160;2024-01-11T12:26:22;100994.08;;;27.09;14.99
61436;BME280;47304;47.456;19.160;2024-01-11T12:28:51;100984.51;;;25.96;15.46
61436;BME280;47304;47.456;19.160;2024-01-11T12:31:19;100987.19;;;24.45;16.36
61436;BME280;47304;47.456;19.160;2024-01-11T12:33:49;100983.07;;;22.25;17.55
61436;BME280;47304;47.456;19.160;2024-01-11T12:36:18;100978.67;;;20.12;18.65
61436;BME280;47304;47.456;19.160;2024-01-11T12:38:49;100985.14;;;18.25;19.99
61436;BME280;47304;47.456;19.160;2024-01-11T12:41:17;100989.16;;;16.36;21.27
61436;BME280;47304;47.456;19.160;2024-01-11T12:43:46;100990.67;;;15.42;22.49
61436;BME280;47304;47.456;19.160;2024-01-11T12:46:14;100999.30;;;14.85;23.43